createdAt,value
2017-08-23T00:00:09.623Z,95.46
2017-08-23T00:01:19.889Z,94.89
2017-08-23T00:02:30.163Z,94.79
2017-08-23T00:03:40.118Z,94.7
2017-08-23T00:04:50.090Z,94.51
2017-08-23T00:06:00.354Z,94.6
2017-08-23T00:07:09.992Z,94.98
2017-08-23T00:08:19.945Z,95.36
2017-08-23T00:09:30.212Z,95.08
2017-08-23T00:10:40.165Z,95.36
2017-08-23T00:11:50.117Z,95.17
2017-08-23T00:13:00.066Z,95.17
2017-08-23T00:14:10.346Z,95.17
2017-08-23T00:15:20.304Z,95.08
2017-08-23T00:16:30.570Z,94.32
2017-08-23T00:17:40.837Z,94.03
2017-08-23T00:18:50.788Z,93.84
2017-08-23T00:20:01.056Z,93.65
2017-08-23T00:21:11.320Z,94.13
2017-08-23T00:22:21.583Z,94.32
2017-08-23T00:23:31.852Z,93.84
2017-08-23T00:24:42.123Z,93.37
2017-08-23T00:25:52.389Z,93.27
2017-08-23T00:27:02.658Z,93.27
2017-08-23T00:28:12.626Z,93.27
2017-08-23T00:29:22.894Z,93.08
2017-08-23T00:30:33.159Z,93.37
2017-08-23T00:31:43.122Z,93.18
2017-08-23T00:32:52.762Z,93.27
2017-08-23T00:34:03.033Z,93.46
2017-08-23T00:35:12.997Z,93.46
2017-08-23T00:36:22.644Z,93.23
2017-08-23T00:37:32.912Z,93.18
2017-08-23T00:38:43.178Z,93.18
2017-08-23T00:39:53.449Z,93.13
2017-08-23T00:41:03.407Z,93.46
2017-08-23T00:42:13.683Z,93.65
2017-08-23T00:43:23.953Z,94.6
2017-08-23T00:44:34.223Z,94.23
2017-08-23T00:45:44.490Z,94.6
2017-08-23T00:46:54.753Z,94.6
2017-08-23T00:48:05.029Z,94.32
2017-08-23T00:49:15.297Z,94.79
2017-08-23T00:50:25.562Z,94.98
2017-08-23T00:51:35.519Z,94.6
2017-08-23T00:52:45.475Z,94.6
2017-08-23T00:53:55.752Z,94.6
2017-08-23T00:55:06.027Z,94.6
2017-08-23T00:56:16.293Z,93.99
2017-08-23T00:57:26.562Z,94.51
2017-08-23T00:58:36.828Z,93.65
2017-08-23T00:59:46.152Z,93.37
2017-08-23T01:00:56.418Z,93.18
2017-08-23T01:02:06.685Z,92.61
2017-08-23T01:03:16.966Z,92.32
2017-08-23T01:04:26.919Z,92.9
2017-08-23T01:05:37.186Z,93.75
2017-08-23T01:06:47.146Z,94.03
2017-08-23T01:07:57.413Z,93.6
2017-08-23T01:09:07.678Z,93.23
2017-08-23T01:10:17.947Z,93.23
2017-08-23T01:11:27.900Z,92.94
2017-08-23T01:12:38.174Z,92.66
2017-08-23T01:13:48.443Z,92.37
2017-08-23T01:14:58.712Z,92.28
2017-08-23T01:16:08.980Z,92.18
2017-08-23T01:17:19.245Z,92.85
2017-08-23T01:18:29.198Z,93.32
2017-08-23T01:19:39.159Z,93.41
2017-08-23T01:20:49.423Z,93.23
2017-08-23T01:21:59.698Z,93.6
2017-08-23T01:23:10.001Z,93.6
2017-08-23T01:24:19.977Z,93.41
2017-08-23T01:25:30.241Z,93.13
2017-08-23T01:26:39.961Z,93.32
2017-08-23T01:27:49.283Z,93.32
2017-08-23T01:28:59.551Z,92.66
2017-08-23T01:30:09.189Z,92.85
2017-08-23T01:31:19.456Z,92.47
2017-08-23T01:32:29.720Z,92.85
2017-08-23T01:33:39.672Z,93.7
2017-08-23T01:34:49.310Z,94.18
2017-08-23T01:35:59.574Z,94.18
2017-08-23T01:37:09.871Z,94.08
2017-08-23T01:38:19.826Z,93.99
2017-08-23T01:39:30.099Z,93.89
2017-08-23T01:40:40.365Z,94.84
2017-08-23T01:41:50.636Z,94.65
2017-08-23T01:43:00.586Z,94.65
2017-08-23T01:44:10.871Z,93.89
2017-08-23T01:45:21.139Z,94.18
2017-08-23T01:46:31.407Z,93.99
2017-08-23T01:47:41.360Z,93.7
2017-08-23T01:48:51.640Z,93.41
2017-08-23T01:50:01.598Z,93.7
2017-08-23T01:51:11.883Z,94.37
2017-08-23T01:52:22.152Z,94.74
2017-08-23T01:53:31.789Z,94.56
2017-08-23T01:54:42.055Z,94.18
2017-08-23T01:55:52.335Z,93.41
2017-08-23T01:57:02.605Z,94.27
2017-08-23T01:58:12.568Z,95.31
2017-08-23T01:59:22.834Z,95.51
2017-08-23T02:00:33.097Z,95.79
2017-08-23T02:01:43.362Z,96.26
2017-08-23T02:02:53.000Z,95.22
2017-08-23T02:04:03.267Z,95.22
2017-08-23T02:05:13.220Z,94.65
2017-08-23T02:06:23.177Z,94.74
2017-08-23T02:07:33.450Z,94.46
2017-08-23T02:08:43.759Z,94.65
2017-08-23T02:09:53.714Z,94.56
2017-08-23T02:11:03.982Z,93.89
2017-08-23T02:12:13.940Z,94.84
2017-08-23T02:13:23.896Z,95.22
2017-08-23T02:14:34.201Z,94.84
2017-08-23T02:15:44.469Z,94.37
2017-08-23T02:16:54.417Z,95.22
2017-08-23T02:18:04.690Z,96.26
2017-08-23T02:19:14.329Z,96.03
2017-08-23T02:20:24.598Z,96.41
2017-08-23T02:21:34.869Z,95.74
2017-08-23T02:22:45.137Z,95.93
2017-08-23T02:23:55.406Z,96.12
2017-08-23T02:25:05.364Z,95.84
2017-08-23T02:26:15.637Z,95.65
2017-08-23T02:27:25.590Z,95.65
2017-08-23T02:28:35.226Z,95.65
2017-08-23T02:29:45.490Z,96.12
2017-08-23T02:30:55.445Z,97.17
2017-08-23T02:32:05.719Z,97.64
2017-08-23T02:33:15.991Z,97.45
2017-08-23T02:34:26.260Z,96.88
2017-08-23T02:35:36.223Z,96.88
2017-08-23T02:36:46.497Z,96.69
2017-08-23T02:37:56.767Z,97.17
2017-08-23T02:39:07.034Z,96.88
2017-08-23T02:40:17.312Z,96.5
2017-08-23T02:41:27.579Z,96.78
2017-08-23T02:42:37.535Z,96.69
2017-08-23T02:43:47.495Z,96.59
2017-08-23T02:44:57.757Z,96.69
2017-08-23T02:46:08.023Z,97.26
2017-08-23T02:47:17.990Z,96.88
2017-08-23T02:48:28.259Z,97.17
2017-08-23T02:49:38.208Z,96.88
2017-08-23T02:50:48.161Z,96.97
2017-08-23T02:51:58.117Z,97.07
2017-08-23T02:53:08.067Z,96.5
2017-08-23T02:54:18.365Z,96.78
2017-08-23T02:55:28.637Z,96.69
2017-08-23T02:56:38.588Z,96.97
2017-08-23T02:57:48.539Z,96.69
2017-08-23T02:58:58.804Z,97.45
2017-08-23T03:00:08.789Z,97.74
2017-08-23T03:01:19.056Z,97.92
2017-08-23T03:02:29.325Z,98.21
2017-08-23T03:03:39.593Z,97.26
2017-08-23T03:04:49.863Z,97.92
2017-08-23T03:06:00.142Z,97.83
2017-08-23T03:07:10.408Z,97.74
2017-08-23T03:08:20.675Z,97.83
2017-08-23T03:09:30.940Z,97.55
2017-08-23T03:10:40.891Z,97.45
2017-08-23T03:11:51.155Z,97.64
2017-08-23T03:13:00.794Z,97.64
2017-08-23T03:14:10.746Z,98.02
2017-08-23T03:15:21.012Z,98.68
2017-08-23T03:16:31.278Z,98.59
2017-08-23T03:17:41.232Z,98.4
2017-08-23T03:18:51.496Z,98.59
2017-08-23T03:20:01.765Z,98.92
2017-08-23T03:21:11.727Z,99.21
2017-08-23T03:22:21.990Z,98.45
2017-08-23T03:23:32.257Z,98.45
2017-08-23T03:24:42.522Z,98.73
2017-08-23T03:25:52.163Z,98.92
2017-08-23T03:27:02.116Z,98.64
2017-08-23T03:28:12.380Z,98.16
2017-08-23T03:29:22.648Z,98.26
2017-08-23T03:30:32.917Z,98.16
2017-08-23T03:31:43.193Z,97.88
2017-08-23T03:32:52.826Z,98.92
2017-08-23T03:34:03.097Z,98.92
2017-08-23T03:35:13.049Z,98.54
2017-08-23T03:36:22.375Z,99.49
2017-08-23T03:37:32.333Z,98.26
2017-08-23T03:38:42.285Z,99.02
2017-08-23T03:39:52.558Z,99.02
2017-08-23T03:41:02.830Z,98.92
2017-08-23T03:42:13.102Z,98.97
2017-08-23T03:43:22.740Z,98.88
2017-08-23T03:44:33.006Z,99.83
2017-08-23T03:45:42.967Z,99.99
2017-08-23T03:46:53.227Z,99.99
2017-08-23T03:48:03.207Z,99.99
2017-08-23T03:49:13.160Z,99.99
2017-08-23T03:50:22.794Z,99.99
2017-08-23T03:51:33.084Z,99.99
2017-08-23T03:52:43.356Z,99.99
2017-08-23T03:53:53.313Z,99.99
2017-08-23T03:55:03.584Z,99.99
2017-08-23T03:56:13.850Z,99.99
2017-08-23T03:57:24.119Z,99.99
2017-08-23T03:58:34.390Z,99.99
2017-08-23T03:59:44.656Z,99.99
2017-08-23T04:00:54.616Z,99.99
2017-08-23T04:02:04.591Z,99.99
2017-08-23T04:03:14.864Z,99.99
2017-08-23T04:04:24.817Z,99.99
2017-08-23T04:05:35.087Z,99.99
2017-08-23T04:06:44.731Z,99.99
2017-08-23T04:07:54.683Z,99.99
2017-08-23T04:09:04.949Z,99.99
2017-08-23T04:10:15.223Z,99.99
2017-08-23T04:11:25.181Z,99.99
2017-08-23T04:12:35.452Z,99.92
2017-08-23T04:13:45.725Z,99.99
2017-08-23T04:14:55.680Z,99.54
2017-08-23T04:16:05.637Z,99.64
2017-08-23T04:17:15.904Z,99.35
2017-08-23T04:18:26.170Z,98.79
2017-08-23T04:19:35.811Z,98.97
2017-08-23T04:20:46.079Z,98.97
2017-08-23T04:21:56.344Z,98.97
2017-08-23T04:23:06.297Z,98.31
2017-08-23T04:24:16.567Z,98.12
2017-08-23T04:25:26.833Z,98.21
2017-08-23T04:26:37.102Z,98.4
2017-08-23T04:27:47.374Z,97.83
2017-08-23T04:28:57.640Z,97.74
2017-08-23T04:30:07.599Z,97.92
2017-08-23T04:31:17.867Z,97.74
2017-08-23T04:32:28.132Z,97.92
2017-08-23T04:33:38.401Z,97.64
2017-08-23T04:34:48.680Z,97.83
2017-08-23T04:35:58.945Z,97.74
2017-08-23T04:37:08.603Z,98.31
2017-08-23T04:38:18.240Z,97.55
2017-08-23T04:39:28.508Z,97.64
2017-08-23T04:40:38.781Z,97.92
2017-08-23T04:41:49.052Z,97.83
2017-08-23T04:42:59.321Z,97.83
2017-08-23T04:44:09.600Z,97.97
2017-08-23T04:45:19.249Z,97.92
2017-08-23T04:46:29.530Z,99.02
2017-08-23T04:47:39.798Z,99.44
2017-08-23T04:48:50.070Z,99.99
2017-08-23T04:50:00.021Z,99.99
2017-08-23T04:51:10.305Z,99.99
2017-08-23T04:52:20.261Z,99.88
2017-08-23T04:53:30.215Z,99.3
2017-08-23T04:54:40.169Z,99.4
2017-08-23T04:55:50.438Z,99.02
2017-08-23T04:57:00.398Z,98.55
2017-08-23T04:58:10.353Z,98.45
2017-08-23T04:59:20.622Z,98.55
2017-08-23T05:00:30.268Z,98.17
2017-08-23T05:01:40.227Z,98.07
2017-08-23T05:02:50.502Z,97.97
2017-08-23T05:04:00.771Z,97.6
2017-08-23T05:05:10.727Z,97.78
2017-08-23T05:06:20.994Z,97.78
2017-08-23T05:07:31.264Z,97.97
2017-08-23T05:08:41.229Z,97.36
2017-08-23T05:09:51.495Z,97.22
2017-08-23T05:11:01.454Z,97.08
2017-08-23T05:12:11.428Z,97.45
2017-08-23T05:13:21.700Z,96.98
2017-08-23T05:14:31.655Z,97.27
2017-08-23T05:15:41.926Z,98.03
2017-08-23T05:16:51.881Z,98.03
2017-08-23T05:18:01.836Z,97.74
2017-08-23T05:19:12.111Z,98.41
2017-08-23T05:20:22.388Z,98.41
2017-08-23T05:21:32.338Z,98.5
2017-08-23T05:22:42.305Z,98.41
2017-08-23T05:23:51.955Z,97.36
2017-08-23T05:25:01.908Z,97.64
2017-08-23T05:26:11.864Z,97.74
2017-08-23T05:27:22.131Z,97.83
2017-08-23T05:28:32.450Z,97.93
2017-08-23T05:29:42.719Z,97.64
2017-08-23T05:30:52.366Z,97.83
2017-08-23T05:32:02.359Z,97.27
2017-08-23T05:33:12.628Z,97.64
2017-08-23T05:34:22.900Z,97.08
2017-08-23T05:35:33.176Z,96.5
2017-08-23T05:36:43.450Z,96.98
2017-08-23T05:37:53.723Z,97.08
2017-08-23T05:39:03.681Z,96.89
2017-08-23T05:40:13.641Z,96.69
2017-08-23T05:41:23.912Z,96.89
2017-08-23T05:42:34.185Z,97.55
2017-08-23T05:43:44.140Z,97.74
2017-08-23T05:44:54.132Z,96.79
2017-08-23T05:46:04.087Z,96.84
2017-08-23T05:47:14.358Z,97.03
2017-08-23T05:48:24.315Z,96.74
2017-08-23T05:49:34.288Z,96.65
2017-08-23T05:50:44.557Z,96.94
2017-08-23T05:51:54.204Z,96.36
2017-08-23T05:53:04.158Z,96.17
2017-08-23T05:54:13.802Z,96.46
2017-08-23T05:55:23.761Z,96.74
2017-08-23T05:56:34.028Z,96.74
2017-08-23T05:57:43.983Z,97.22
2017-08-23T05:58:54.259Z,97.13
2017-08-23T06:00:04.540Z,97.5
2017-08-23T06:01:14.185Z,96.94
2017-08-23T06:02:24.143Z,97.69
2017-08-23T06:03:33.792Z,96.74
2017-08-23T06:04:43.755Z,97.22
2017-08-23T06:05:54.026Z,96.94
2017-08-23T06:07:04.297Z,96.94
2017-08-23T06:08:14.578Z,97.6
2017-08-23T06:09:24.541Z,97.41
2017-08-23T06:10:34.815Z,97.03
2017-08-23T06:11:45.103Z,97.22
2017-08-23T06:12:55.373Z,96.08
2017-08-23T06:14:05.644Z,96.17
2017-08-23T06:15:15.603Z,95.6
2017-08-23T06:16:25.566Z,96.46
2017-08-23T06:17:35.522Z,96.17
2017-08-23T06:18:45.479Z,96.17
2017-08-23T06:19:55.757Z,96.08
2017-08-23T06:21:05.715Z,95.6
2017-08-23T06:22:15.984Z,96.17
2017-08-23T06:23:25.626Z,96.26
2017-08-23T06:24:35.587Z,95.79
2017-08-23T06:25:45.936Z,95.98
2017-08-23T06:26:56.222Z,96.17
2017-08-23T06:28:06.506Z,96.26
2017-08-23T06:29:16.776Z,96.94
2017-08-23T06:30:27.052Z,96.84
2017-08-23T06:31:37.340Z,96.46
2017-08-23T06:32:47.643Z,96.94
2017-08-23T06:33:57.597Z,96.17
2017-08-23T06:35:07.873Z,96.55
2017-08-23T06:36:17.830Z,96.94
2017-08-23T06:37:28.114Z,97.22
2017-08-23T06:38:37.756Z,96.84
2017-08-23T06:39:47.729Z,96.94
2017-08-23T06:40:57.999Z,96.17
2017-08-23T06:42:07.961Z,96.55
2017-08-23T06:43:17.924Z,95.79
2017-08-23T06:44:28.197Z,95.36
2017-08-23T06:45:38.163Z,95.56
2017-08-23T06:46:49.521Z,94.98
2017-08-23T06:48:03.013Z,94.89
2017-08-23T06:49:12.967Z,94.7
2017-08-23T06:50:23.234Z,94.6
2017-08-23T06:51:33.505Z,94.51
2017-08-23T06:52:43.780Z,94.13
2017-08-23T06:53:53.426Z,94.22
2017-08-23T06:55:03.702Z,94.32
2017-08-23T06:56:13.976Z,94.7
2017-08-23T06:57:23.619Z,94.6
2017-08-23T06:58:33.951Z,93.94
2017-08-23T06:59:43.910Z,93.98
2017-08-23T07:00:54.181Z,94.37
2017-08-23T07:02:04.137Z,93.7
2017-08-23T07:03:14.417Z,94.08
2017-08-23T07:04:24.696Z,93.51
2017-08-23T07:05:34.974Z,93.51
2017-08-23T07:06:45.244Z,93.03
2017-08-23T07:07:55.201Z,92.08
2017-08-23T07:09:05.158Z,91.89
2017-08-23T07:10:15.116Z,91.89
2017-08-23T07:11:25.072Z,91.99
2017-08-23T07:12:35.341Z,91.84
2017-08-23T07:13:45.614Z,91.84
2017-08-23T07:14:55.883Z,91.27
2017-08-23T07:16:05.524Z,91.27
2017-08-23T07:17:15.808Z,90.98
2017-08-23T07:18:25.767Z,91.17
2017-08-23T07:19:35.722Z,91.27
2017-08-23T07:20:45.997Z,91.08
2017-08-23T07:21:56.306Z,90.84
2017-08-23T07:23:06.268Z,90.27
2017-08-23T07:24:16.547Z,90.6
2017-08-23T07:25:26.194Z,90.79
2017-08-23T07:26:36.468Z,90.41
2017-08-23T07:27:46.739Z,90.89
2017-08-23T07:28:57.040Z,90.12
2017-08-23T07:30:07.309Z,90.03
2017-08-23T07:31:17.262Z,90.03
2017-08-23T07:32:27.540Z,90.03
2017-08-23T07:33:37.809Z,89.46
2017-08-23T07:34:48.077Z,89.46
2017-08-23T07:35:57.731Z,89.17
2017-08-23T07:37:08.008Z,89.17
2017-08-23T07:38:18.283Z,89.07
2017-08-23T07:39:28.244Z,89.17
2017-08-23T07:40:38.513Z,88.6
2017-08-23T07:41:48.815Z,89.07
2017-08-23T07:42:59.097Z,90.03
2017-08-23T07:44:09.373Z,89.94
2017-08-23T07:45:19.644Z,89.65
2017-08-23T07:46:29.283Z,88.89
2017-08-23T07:47:38.946Z,89.07
2017-08-23T07:48:48.905Z,89.55
2017-08-23T07:49:59.180Z,89.84
2017-08-23T07:51:09.543Z,89.36
2017-08-23T07:52:19.502Z,88.79
2017-08-23T07:53:29.466Z,89.17
2017-08-23T07:54:39.740Z,88.98
2017-08-23T07:55:49.702Z,88.98
2017-08-23T07:56:59.982Z,88.89
2017-08-23T07:58:10.258Z,89.31
2017-08-23T07:59:20.218Z,89.75
2017-08-23T08:00:30.176Z,89.5
2017-08-23T08:01:40.448Z,89.5
2017-08-23T08:02:50.408Z,88.64
2017-08-23T08:04:00.689Z,88.74
2017-08-23T08:05:10.964Z,88.26
2017-08-23T08:06:21.242Z,88.07
2017-08-23T08:07:31.198Z,88.64
2017-08-23T08:08:41.154Z,89.5
2017-08-23T08:09:50.799Z,88.55
2017-08-23T08:11:01.084Z,88.36
2017-08-23T08:12:11.365Z,88.74
2017-08-23T08:13:21.637Z,88.45
2017-08-23T08:14:31.909Z,87.4
2017-08-23T08:20:05.650Z,86.88
2017-08-23T08:21:15.612Z,86.59
2017-08-23T08:22:24.941Z,86.49
2017-08-23T08:23:35.210Z,85.93
2017-08-23T08:24:45.486Z,85.45
2017-08-23T08:25:56.005Z,85.87
2017-08-23T08:27:06.281Z,85.54
2017-08-23T08:28:16.241Z,85.11
2017-08-23T08:29:26.541Z,84.53
2017-08-23T08:30:36.815Z,84.63
2017-08-23T08:31:48.769Z,84.44
2017-08-23T08:32:58.726Z,84.16
2017-08-23T08:34:09.000Z,83.96
2017-08-23T08:35:18.644Z,83.29
2017-08-23T08:36:28.636Z,83.01
2017-08-23T08:37:38.906Z,83.39
2017-08-23T08:38:48.862Z,83.77
2017-08-23T08:39:58.822Z,83.58
2017-08-23T08:41:09.098Z,83.48
2017-08-23T08:42:18.741Z,83.77
2017-08-23T08:43:29.016Z,83.34
2017-08-23T08:44:38.673Z,83.05
2017-08-23T08:45:48.947Z,82.95
2017-08-23T08:46:58.903Z,82.67
2017-08-23T08:48:09.174Z,83.14
2017-08-23T08:49:18.818Z,82.38
2017-08-23T08:50:29.098Z,81.62
2017-08-23T08:51:39.377Z,81.56
2017-08-23T08:52:49.661Z,81.18
2017-08-23T08:53:59.937Z,80.9
2017-08-23T08:55:10.270Z,80.51
2017-08-23T08:56:20.230Z,79.46
2017-08-23T08:57:30.197Z,79.75
2017-08-23T08:58:40.472Z,79.12
2017-08-23T08:59:50.748Z,78.74
2017-08-23T09:01:00.706Z,78.83
2017-08-23T09:02:10.977Z,78.36
2017-08-23T09:03:21.251Z,78.16
2017-08-23T09:04:31.525Z,76.82
2017-08-23T09:05:41.503Z,77.21
2017-08-23T09:06:50.529Z,77.72
2017-08-23T09:08:00.804Z,76.86
2017-08-23T09:09:11.074Z,76.77
2017-08-23T09:10:21.035Z,76.67
2017-08-23T09:11:31.014Z,76.48
2017-08-23T09:12:41.286Z,76.39
2017-08-23T09:13:51.245Z,76.29
2017-08-23T09:15:01.204Z,76.33
2017-08-23T09:16:11.169Z,75.56
2017-08-23T09:17:20.814Z,76.42
2017-08-23T09:18:31.086Z,75.95
2017-08-23T09:19:40.744Z,76.81
2017-08-23T09:20:51.020Z,76.9
2017-08-23T09:22:00.981Z,76.23
2017-08-23T09:23:10.947Z,75.27
2017-08-23T09:24:21.235Z,75.56
2017-08-23T09:25:31.516Z,75.22
2017-08-23T09:26:41.788Z,75.51
2017-08-23T09:27:52.062Z,74.45
2017-08-23T09:29:02.036Z,73.5
2017-08-23T09:30:12.310Z,73.97
2017-08-23T09:31:22.589Z,73.69
2017-08-23T09:32:32.862Z,73.4
2017-08-23T09:33:43.140Z,73.3
2017-08-23T09:34:53.101Z,74.07
2017-08-23T09:36:03.059Z,74.68
2017-08-23T09:37:13.335Z,74.16
2017-08-23T09:38:23.611Z,73.21
2017-08-23T09:39:33.577Z,73.21
2017-08-23T09:40:43.227Z,72.92
2017-08-23T09:41:53.505Z,72.54
2017-08-23T09:43:03.171Z,72.09
2017-08-23T09:44:13.441Z,71.33
2017-08-23T09:45:23.412Z,71.23
2017-08-23T09:46:33.684Z,71.04
2017-08-23T09:47:43.968Z,71.14
2017-08-23T09:48:54.291Z,71.52
2017-08-23T09:50:04.255Z,71.23
2017-08-23T09:51:14.528Z,71.04
2017-08-23T09:52:24.497Z,70.37
2017-08-23T09:53:34.772Z,70.56
2017-08-23T09:54:45.046Z,71.04
2017-08-23T09:55:55.321Z,71.23
2017-08-23T09:57:05.595Z,69.8
2017-08-23T09:58:15.558Z,68.84
2017-08-23T09:59:25.853Z,69.6
2017-08-23T10:00:36.129Z,69.32
2017-08-23T10:01:46.099Z,68.46
2017-08-23T10:02:56.372Z,67.69
2017-08-23T10:04:06.650Z,67.72
2017-08-23T10:05:16.610Z,67.15
2017-08-23T10:06:26.581Z,67.54
2017-08-23T10:07:36.857Z,67.72
2017-08-23T10:08:47.128Z,67.05
2017-08-23T10:09:57.088Z,67.05
2017-08-23T10:11:07.358Z,66.96
2017-08-23T10:12:17.632Z,66.29
2017-08-23T10:13:27.283Z,66.58
2017-08-23T10:14:37.251Z,67.44
2017-08-23T10:15:47.214Z,67.34
2017-08-23T10:16:56.862Z,67.82
2017-08-23T10:18:07.152Z,67.05
2017-08-23T10:19:17.118Z,66.29
2017-08-23T10:20:27.082Z,66.48
2017-08-23T10:21:36.725Z,66.48
2017-08-23T10:22:46.067Z,66.48
2017-08-23T10:23:56.345Z,66.38
2017-08-23T10:25:06.618Z,65.81
2017-08-23T10:26:16.892Z,65.42
2017-08-23T10:27:26.878Z,65.33
2017-08-23T10:28:36.844Z,66.58
2017-08-23T10:29:47.116Z,67.05
2017-08-23T10:30:57.399Z,67.25
2017-08-23T10:32:07.679Z,66.96
2017-08-23T10:33:17.957Z,67.05
2017-08-23T10:34:28.243Z,67.15
2017-08-23T10:35:38.210Z,67.63
2017-08-23T10:36:48.169Z,67.72
2017-08-23T10:37:58.448Z,67.38
2017-08-23T10:39:08.726Z,67.05
2017-08-23T10:40:18.684Z,66.86
2017-08-23T10:41:28.649Z,67.44
2017-08-23T10:42:38.925Z,66.32
2017-08-23T10:43:49.204Z,66.58
2017-08-23T10:44:59.165Z,67.57
2017-08-23T10:46:09.441Z,67.76
2017-08-23T10:47:19.726Z,67.47
2017-08-23T10:48:29.710Z,67.57
2017-08-23T10:49:39.674Z,67.76
2017-08-23T10:50:49.322Z,67.28
2017-08-23T10:51:59.682Z,66.89
2017-08-23T10:53:09.962Z,67.28
2017-08-23T10:54:20.238Z,67.18
2017-08-23T10:55:30.522Z,67.18
2017-08-23T10:56:40.797Z,66.61
2017-08-23T10:57:50.757Z,66.89
2017-08-23T10:59:00.410Z,66.16
2017-08-23T11:00:10.067Z,65.88
2017-08-23T11:01:20.026Z,65.88
2017-08-23T11:02:30.305Z,65.2
2017-08-23T11:03:40.582Z,65.3
2017-08-23T11:04:50.856Z,65.49
2017-08-23T11:06:00.506Z,66.67
2017-08-23T11:07:10.169Z,65.91
2017-08-23T11:08:20.445Z,65.43
2017-08-23T11:09:30.404Z,65.23
2017-08-23T11:10:40.678Z,64.5
2017-08-23T11:11:50.962Z,65.27
2017-08-23T11:13:01.240Z,64.59
2017-08-23T11:14:11.521Z,64.59
2017-08-23T11:15:21.500Z,63.35
2017-08-23T11:16:31.775Z,62.96
2017-08-23T11:17:41.737Z,63.25
2017-08-23T11:18:51.702Z,63.64
2017-08-23T11:20:01.977Z,62.9
2017-08-23T11:21:12.255Z,63.38
2017-08-23T11:22:21.902Z,62.32
2017-08-23T11:23:31.875Z,62.07
2017-08-23T11:24:42.153Z,62.87
2017-08-23T11:25:52.551Z,60.49
2017-08-23T11:27:02.828Z,58.15
2017-08-23T11:28:12.793Z,58.24
2017-08-23T11:29:22.758Z,55.22
2017-08-23T11:30:33.043Z,54.96
2017-08-23T11:31:43.008Z,52.86
2017-08-23T11:32:52.977Z,52.09
2017-08-23T11:34:02.632Z,52.21
2017-08-23T11:35:12.284Z,51.44
2017-08-23T11:36:22.249Z,51.17
2017-08-23T11:37:32.227Z,49.55
2017-08-23T11:38:42.194Z,48.52
2017-08-23T11:39:52.174Z,49.6
2017-08-23T11:41:02.471Z,47.5
2017-08-23T11:42:12.759Z,45.4
2017-08-23T11:43:23.057Z,45.66
2017-08-23T11:44:33.341Z,44.62
2017-08-23T11:45:43.308Z,45.2
2017-08-23T11:46:52.976Z,45.59
2017-08-23T11:48:02.947Z,45.76
2017-08-23T11:49:13.231Z,44.77
2017-08-23T11:50:22.886Z,44.48
2017-08-23T11:51:32.872Z,45.25
2017-08-23T11:52:42.533Z,45.08
2017-08-23T11:53:52.508Z,44.02
2017-08-23T11:55:02.481Z,44.02
2017-08-23T11:56:12.770Z,43.17
2017-08-23T11:57:23.059Z,43.15
2017-08-23T11:58:33.356Z,43.82
2017-08-23T11:59:43.021Z,44.6
2017-08-23T12:00:52.674Z,44.81
2017-08-23T12:02:02.961Z,43.54
2017-08-23T12:03:13.244Z,43.51
2017-08-23T12:04:23.537Z,43.98
2017-08-23T12:05:33.820Z,43.98
2017-08-23T12:06:44.111Z,45.33
2017-08-23T12:07:54.092Z,44.36
2017-08-23T12:09:04.063Z,44.26
2017-08-23T12:10:14.350Z,44.84
2017-08-23T12:11:24.634Z,45.52
2017-08-23T12:12:34.295Z,45.69
2017-08-23T12:13:44.587Z,45.72
2017-08-23T12:14:54.875Z,45.31
2017-08-23T12:16:04.534Z,46.75
2017-08-23T12:17:14.826Z,45.96
2017-08-23T12:18:24.797Z,46.54
2017-08-23T12:19:34.785Z,46.54
2017-08-23T12:20:44.440Z,45.94
2017-08-23T12:21:54.414Z,46.71
2017-08-23T12:23:04.698Z,47.09
2017-08-23T12:24:14.670Z,48.23
2017-08-23T12:25:24.956Z,48.25
2017-08-23T12:26:34.938Z,47.87
2017-08-23T12:27:44.911Z,47.09
2017-08-23T12:28:54.886Z,47.02
2017-08-23T12:30:04.555Z,46.73
2017-08-23T12:31:14.844Z,46.97
2017-08-23T12:32:25.132Z,45.42
2017-08-23T12:33:35.118Z,46.12
2017-08-23T12:34:45.414Z,45.57
2017-08-23T12:35:55.703Z,44.43
2017-08-23T12:37:05.986Z,44.35
2017-08-23T12:38:15.332Z,43.41
2017-08-23T12:39:25.616Z,42.65
2017-08-23T12:40:35.901Z,41.58
2017-08-23T12:41:45.873Z,41.51
2017-08-23T12:42:55.847Z,40.95
2017-08-23T12:44:06.141Z,40.87
2017-08-23T12:45:16.110Z,40.21
2017-08-23T12:46:26.408Z,40.01
2017-08-23T12:47:36.090Z,38.48
2017-08-23T12:48:46.378Z,37.52
2017-08-23T12:49:56.669Z,36.96
2017-08-23T12:51:06.976Z,38.23
2017-08-23T12:52:17.264Z,36.3
2017-08-23T12:53:27.546Z,36.2
2017-08-23T12:54:37.526Z,36.9
2017-08-23T12:55:47.502Z,34.68
2017-08-23T12:56:57.477Z,34.97
2017-08-23T12:58:07.781Z,33.14
2017-08-23T12:59:17.758Z,34.11
2017-08-23T13:00:27.738Z,34.5
2017-08-23T13:01:38.025Z,34.91
2017-08-23T13:02:48.006Z,34.52
2017-08-23T13:03:57.980Z,33.85
2017-08-23T13:05:07.965Z,33.65
2017-08-23T13:06:18.253Z,32.81
2017-08-23T13:07:28.551Z,33.89
2017-08-23T13:08:38.532Z,33.02
2017-08-23T13:09:48.731Z,33.79
2017-08-23T13:10:58.184Z,32.42
2017-08-23T13:12:08.477Z,33.09
2017-08-23T13:13:17.821Z,33.17
2017-08-23T13:14:27.804Z,33.93
2017-08-23T13:15:38.092Z,34.03
2017-08-23T13:16:48.379Z,33.83
2017-08-23T13:17:57.406Z,33.83
2017-08-23T13:19:06.758Z,33.73
2017-08-23T13:20:16.104Z,33.34
2017-08-23T13:21:25.770Z,33.92
2017-08-23T13:22:36.061Z,32.82
2017-08-23T13:23:46.436Z,33.29
2017-08-23T13:24:56.725Z,34.95
2017-08-23T13:26:07.017Z,35.71
2017-08-23T13:27:16.673Z,35.99
2017-08-23T13:28:26.661Z,35.6
2017-08-23T13:29:36.802Z,35.6
2017-08-23T13:30:47.125Z,35.44
2017-08-23T13:31:57.099Z,34.95
2017-08-23T13:33:06.450Z,33.9
2017-08-23T13:34:16.748Z,33.9
2017-08-23T13:35:27.059Z,33.72
2017-08-23T13:36:37.347Z,31.49
2017-08-23T13:37:47.320Z,33.43
2017-08-23T13:38:56.979Z,33.36
2017-08-23T13:40:06.953Z,33.44
2017-08-23T13:41:16.627Z,33.06
2017-08-23T13:42:26.920Z,33.83
2017-08-23T13:43:36.898Z,32.94
2017-08-23T13:44:47.188Z,33.92
2017-08-23T13:45:57.163Z,33.14
2017-08-23T13:47:07.454Z,34.39
2017-08-23T13:48:17.111Z,33.62
2017-08-23T13:49:26.768Z,32.28
2017-08-23T13:50:36.747Z,33.46
2017-08-23T13:51:46.754Z,32.6
2017-08-23T13:52:56.726Z,32.21
2017-08-23T13:54:06.698Z,31.35
2017-08-23T13:55:16.699Z,32.03
2017-08-23T13:56:26.105Z,31.36
2017-08-23T13:57:36.399Z,31.65
2017-08-23T13:58:46.685Z,31.07
2017-08-23T13:59:56.661Z,31.36
2017-08-23T14:01:06.640Z,31.16
2017-08-23T14:02:16.615Z,30.86
2017-08-23T14:03:26.605Z,30.77
2017-08-23T14:04:36.893Z,30.48
2017-08-23T14:05:46.872Z,30.38
2017-08-23T14:06:56.876Z,30.19
2017-08-23T14:08:06.851Z,30.66
2017-08-23T14:09:16.824Z,30.76
2017-08-23T14:10:26.805Z,31.99
2017-08-23T14:11:37.093Z,31.99
2017-08-23T14:12:47.065Z,32.28
2017-08-23T14:13:57.359Z,31.96
2017-08-23T14:15:06.703Z,33.02
2017-08-23T14:16:16.673Z,33.02
2017-08-23T14:17:26.963Z,32.81
2017-08-23T14:18:36.939Z,34.16
2017-08-23T14:19:47.282Z,33.49
2017-08-23T14:20:57.256Z,33.39
2017-08-23T14:22:07.544Z,33.98
2017-08-23T14:23:17.284Z,33.9
2017-08-23T14:24:27.618Z,34
2017-08-23T14:25:37.643Z,33.23
2017-08-23T14:26:47.927Z,32.08
2017-08-23T14:27:57.913Z,31.01
2017-08-23T14:29:07.891Z,31.01
2017-08-23T14:30:17.550Z,30.93
2017-08-23T14:31:27.460Z,31.02
2017-08-23T14:32:37.503Z,30.93
2017-08-23T14:33:48.133Z,31.12
2017-08-23T14:34:58.106Z,31.88
2017-08-23T14:36:08.397Z,32.06
2017-08-23T14:37:18.690Z,32.26
2017-08-23T14:38:28.981Z,32.43
2017-08-23T14:39:38.959Z,32.35
2017-08-23T14:40:48.656Z,31.98
2017-08-23T14:41:58.625Z,31.02
2017-08-23T14:43:08.598Z,30.05
2017-08-23T14:44:18.572Z,30.45
2017-08-23T14:45:28.864Z,30.47
2017-08-23T14:46:38.523Z,28.92
2017-08-23T14:47:48.515Z,30.1
2017-08-23T14:48:58.821Z,30.02
2017-08-23T14:50:09.135Z,28.28
2017-08-23T14:51:19.125Z,27.9
2017-08-23T14:52:28.795Z,27.69
2017-08-23T14:53:38.453Z,28.36
2017-08-23T14:54:48.426Z,27.88
2017-08-23T14:55:58.410Z,26.9
2017-08-23T14:57:08.075Z,28.55
2017-08-23T14:58:18.055Z,29.32
2017-08-23T14:59:28.344Z,29.22
2017-08-23T15:00:38.316Z,29.22
2017-08-23T15:01:48.290Z,29.22
2017-08-23T15:02:58.584Z,29.91
2017-08-23T15:04:08.877Z,29.52
2017-08-23T15:05:18.227Z,29.71
2017-08-23T15:06:28.521Z,29.24
2017-08-23T15:07:38.810Z,29.44
2017-08-23T15:08:48.784Z,29.55
2017-08-23T15:09:59.079Z,28.78